sensor_id;sensor_type;location;lat;lon;timestamp;temperature;humidity
35962;DHT22;22044;48.298;10.008;2023-12-20T00:01:45;4.10;99.90
35962;DHT22;22044;48.298;10.008;2023-12-20T00:04:30;4.10;99.90
35962;DHT22;22044;48.298;10.008;2023-12-20T00:07:17;4.20;99.90
35962;DHT22;22044;48.298;10.008;2023-12-20T00:10:03;4.10;99.90
35962;DHT22;22044;48.298;10.008;2023-12-20T00:12:48;4.20;99.90
35962;DHT22;22044;48.298;10.008;2023-12-20T00:15:34;4.10;99.90
35962;DHT22;22044;48.298;10.008;2023-12-20T00:18:20;4.10;99.90
35962;DHT22;22044;48.298;10.008;2023-12-20T00:21:05;4.10;99.90
35962;DHT22;22044;48.298;10.008;2023-12-20T00:23:52;4.10;99.90
35962;DHT22;22044;48.298;10.008;2023-12-20T00:26:38;4.10;99.90
35962;DHT22;22044;48.298;10.008;2023-12-20T00:29:23;4.10;99.90
35962;DHT22;22044;48.298;10.008;2023-12-20T00:32:09;4.10;99.90
35962;DHT22;22044;48.298;10.008;2023-12-20T00:34:54;4.10;99.90
35962;DHT22;22044;48.298;10.008;2023-12-20T00:37:40;4.10;99.90
35962;DHT22;22044;48.298;10.008;2023-12-20T00:40:27;4.10;99.90
35962;DHT22;22044;48.298;10.008;2023-12-20T00:43:12;4.10;99.90
35962;DHT22;22044;48.298;10.008;2023-12-20T00:45:58;4.10;99.90
35962;DHT22;22044;48.298;10.008;2023-12-20T00:48:44;4.10;99.90
35962;DHT22;22044;48.298;10.008;2023-12-20T00:51:30;4.10;99.90
35962;DHT22;22044;48.298;10.008;2023-12-20T00:54:15;4.00;99.90
35962;DHT22;22044;48.298;10.008;2023-12-20T00:57:05;4.00;99.90
35962;DHT22;22044;48.298;10.008;2023-12-20T00:59:50;4.00;99.90
35962;DHT22;22044;48.298;10.008;2023-12-20T01:02:36;3.90;99.90
35962;DHT22;22044;48.298;10.008;2023-12-20T01:05:21;3.90;99.90
35962;DHT22;22044;48.298;10.008;2023-12-20T01:08:07;3.80;99.90
35962;DHT22;22044;48.298;10.008;2023-12-20T01:10:53;3.90;99.90
35962;DHT22;22044;48.298;10.008;2023-12-20T01:13:40;3.90;99.90
35962;DHT22;22044;48.298;10.008;2023-12-20T01:16:25;3.90;99.90
35962;DHT22;22044;48.298;10.008;2023-12-20T01:19:11;3.90;99.90
35962;DHT22;22044;48.298;10.008;2023-12-20T01:21:57;3.80;99.90
35962;DHT22;22044;48.298;10.008;2023-12-20T01:24:42;3.90;99.90
35962;DHT22;22044;48.298;10.008;2023-12-20T01:27:28;3.90;99.90
35962;DHT22;22044;48.298;10.008;2023-12-20T01:30:16;3.90;99.90
35962;DHT22;22044;48.298;10.008;2023-12-20T01:33:02;3.90;99.90
35962;DHT22;22044;48.298;10.008;2023-12-20T01:35:48;3.90;99.90
35962;DHT22;22044;48.298;10.008;2023-12-20T01:38:33;3.90;99.90
35962;DHT22;22044;48.298;10.008;2023-12-20T01:41:19;3.90;99.90
35962;DHT22;22044;48.298;10.008;2023-12-20T01:44:04;3.80;99.90
35962;DHT22;22044;48.298;10.008;2023-12-20T01:46:52;3.90;99.90
35962;DHT22;22044;48.298;10.008;2023-12-20T01:49:37;3.90;99.90
35962;DHT22;22044;48.298;10.008;2023-12-20T01:52:23;3.90;99.90
35962;DHT22;22044;48.298;10.008;2023-12-20T01:55:11;3.90;99.90
35962;DHT22;22044;48.298;10.008;2023-12-20T01:57:59;3.90;99.90
35962;DHT22;22044;48.298;10.008;2023-12-20T02:00:45;3.90;99.90
35962;DHT22;22044;48.298;10.008;2023-12-20T02:03:32;3.80;99.90
35962;DHT22;22044;48.298;10.008;2023-12-20T02:06:20;3.80;99.90
35962;DHT22;22044;48.298;10.008;2023-12-20T02:09:07;3.90;99.90
35962;DHT22;22044;48.298;10.008;2023-12-20T02:11:53;3.80;99.90
35962;DHT22;22044;48.298;10.008;2023-12-20T02:14:39;3.80;99.90
35962;DHT22;22044;48.298;10.008;2023-12-20T02:17:24;3.80;99.90
35962;DHT22;22044;48.298;10.008;2023-12-20T02:20:12;3.80;99.90
35962;DHT22;22044;48.298;10.008;2023-12-20T02:22:59;3.90;99.90
35962;DHT22;22044;48.298;10.008;2023-12-20T02:25:44;3.90;99.90
35962;DHT22;22044;48.298;10.008;2023-12-20T02:28:30;3.90;99.90
35962;DHT22;22044;48.298;10.008;2023-12-20T02:31:17;3.80;99.90
35962;DHT22;22044;48.298;10.008;2023-12-20T02:34:05;3.80;99.90
35962;DHT22;22044;48.298;10.008;2023-12-20T02:36:51;3.80;99.90
35962;DHT22;22044;48.298;10.008;2023-12-20T02:39:38;3.80;99.90
35962;DHT22;22044;48.298;10.008;2023-12-20T02:42:23;3.80;99.90
35962;DHT22;22044;48.298;10.008;2023-12-20T02:45:09;3.70;99.90
35962;DHT22;22044;48.298;10.008;2023-12-20T02:47:54;3.80;99.90
35962;DHT22;22044;48.298;10.008;2023-12-20T02:50:40;3.70;99.90
35962;DHT22;22044;48.298;10.008;2023-12-20T02:53:25;3.80;99.90
35962;DHT22;22044;48.298;10.008;2023-12-20T02:56:12;3.80;99.90
35962;DHT22;22044;48.298;10.008;2023-12-20T02:58:58;3.80;99.90
35962;DHT22;22044;48.298;10.008;2023-12-20T03:01:45;3.80;99.90
35962;DHT22;22044;48.298;10.008;2023-12-20T03:04:30;3.80;99.90
35962;DHT22;22044;48.298;10.008;2023-12-20T03:07:16;3.80;99.90
35962;DHT22;22044;48.298;10.008;2023-12-20T03:10:01;3.80;99.90
35962;DHT22;22044;48.298;10.008;2023-12-20T03:12:48;3.80;99.90
35962;DHT22;22044;48.298;10.008;2023-12-20T03:15:34;3.80;99.90
35962;DHT22;22044;48.298;10.008;2023-12-20T03:18:19;3.80;99.90
35962;DHT22;22044;48.298;10.008;2023-12-20T03:21:05;3.70;99.90
35962;DHT22;22044;48.298;10.008;2023-12-20T03:23:51;3.60;99.90
35962;DHT22;22044;48.298;10.008;2023-12-20T03:26:37;3.60;99.90
35962;DHT22;22044;48.298;10.008;2023-12-20T03:29:23;3.60;99.90
35962;DHT22;22044;48.298;10.008;2023-12-20T03:32:09;3.60;99.90
35962;DHT22;22044;48.298;10.008;2023-12-20T03:34:54;3.60;99.90
35962;DHT22;22044;48.298;10.008;2023-12-20T03:37:40;3.70;99.90
35962;DHT22;22044;48.298;10.008;2023-12-20T03:40:26;3.70;99.90
35962;DHT22;22044;48.298;10.008;2023-12-20T03:43:11;3.70;99.90
35962;DHT22;22044;48.298;10.008;2023-12-20T03:45:59;3.70;99.90
35962;DHT22;22044;48.298;10.008;2023-12-20T03:48:45;3.70;99.90
35962;DHT22;22044;48.298;10.008;2023-12-20T03:51:30;3.80;99.90
35962;DHT22;22044;48.298;10.008;2023-12-20T03:54:16;3.70;99.90
35962;DHT22;22044;48.298;10.008;2023-12-20T03:57:02;3.80;99.90
35962;DHT22;22044;48.298;10.008;2023-12-20T03:59:47;3.80;99.90
35962;DHT22;22044;48.298;10.008;2023-12-20T04:02:34;3.80;99.90
35962;DHT22;22044;48.298;10.008;2023-12-20T04:05:20;3.90;99.90
35962;DHT22;22044;48.298;10.008;2023-12-20T04:08:07;3.90;99.90
35962;DHT22;22044;48.298;10.008;2023-12-20T04:10:53;3.80;99.90
35962;DHT22;22044;48.298;10.008;2023-12-20T04:13:38;3.80;99.90
35962;DHT22;22044;48.298;10.008;2023-12-20T04:16:24;3.80;99.90
35962;DHT22;22044;48.298;10.008;2023-12-20T04:19:11;3.90;99.90
35962;DHT22;22044;48.298;10.008;2023-12-20T04:21:56;3.90;99.90
35962;DHT22;22044;48.298;10.008;2023-12-20T04:24:42;3.90;99.90
35962;DHT22;22044;48.298;10.008;2023-12-20T04:27:28;3.80;99.90
35962;DHT22;22044;48.298;10.008;2023-12-20T04:30:13;3.80;99.90
35962;DHT22;22044;48.298;10.008;2023-12-20T04:32:59;3.90;99.90
35962;DHT22;22044;48.298;10.008;2023-12-20T04:35:46;3.90;99.90
35962;DHT22;22044;48.298;10.008;2023-12-20T04:38:32;3.90;99.90
35962;DHT22;22044;48.298;10.008;2023-12-20T04:41:17;3.90;99.90
35962;DHT22;22044;48.298;10.008;2023-12-20T04:44:03;3.90;99.90
35962;DHT22;22044;48.298;10.008;2023-12-20T04:46:49;3.90;99.90
35962;DHT22;22044;48.298;10.008;2023-12-20T04:49:34;4.00;99.90
35962;DHT22;22044;48.298;10.008;2023-12-20T04:52:21;4.00;99.90
35962;DHT22;22044;48.298;10.008;2023-12-20T04:55:07;4.00;99.90
35962;DHT22;22044;48.298;10.008;2023-12-20T04:57:53;4.10;99.90
35962;DHT22;22044;48.298;10.008;2023-12-20T05:00:38;4.10;99.90
35962;DHT22;22044;48.298;10.008;2023-12-20T05:03:24;4.10;99.90
35962;DHT22;22044;48.298;10.008;2023-12-20T05:06:10;4.10;99.90
35962;DHT22;22044;48.298;10.008;2023-12-20T05:08:57;4.10;99.90
35962;DHT22;22044;48.298;10.008;2023-12-20T05:11:42;4.10;99.90
35962;DHT22;22044;48.298;10.008;2023-12-20T05:14:28;4.00;99.90
35962;DHT22;22044;48.298;10.008;2023-12-20T05:17:13;4.10;99.90
35962;DHT22;22044;48.298;10.008;2023-12-20T05:19:59;4.10;99.90
35962;DHT22;22044;48.298;10.008;2023-12-20T05:22:44;4.10;99.90
35962;DHT22;22044;48.298;10.008;2023-12-20T05:25:33;4.10;99.90
35962;DHT22;22044;48.298;10.008;2023-12-20T05:28:18;4.10;99.90
35962;DHT22;22044;48.298;10.008;2023-12-20T05:31:04;4.20;99.90
35962;DHT22;22044;48.298;10.008;2023-12-20T05:33:50;4.20;99.90
35962;DHT22;22044;48.298;10.008;2023-12-20T05:36:36;4.20;99.90
35962;DHT22;22044;48.298;10.008;2023-12-20T05:39:22;4.20;99.90
35962;DHT22;22044;48.298;10.008;2023-12-20T05:42:12;4.20;99.90
35962;DHT22;22044;48.298;10.008;2023-12-20T05:44:58;4.20;99.90
35962;DHT22;22044;48.298;10.008;2023-12-20T05:47:43;4.20;99.90
35962;DHT22;22044;48.298;10.008;2023-12-20T05:50:29;4.10;99.90
35962;DHT22;22044;48.298;10.008;2023-12-20T05:53:14;4.10;99.90
35962;DHT22;22044;48.298;10.008;2023-12-20T05:56:00;4.10;99.90
35962;DHT22;22044;48.298;10.008;2023-12-20T05:58:47;4.20;99.90
35962;DHT22;22044;48.298;10.008;2023-12-20T06:01:33;4.10;99.90
35962;DHT22;22044;48.298;10.008;2023-12-20T06:04:19;4.20;99.90
35962;DHT22;22044;48.298;10.008;2023-12-20T06:07:05;4.10;99.90
35962;DHT22;22044;48.298;10.008;2023-12-20T06:09:50;4.20;99.90
35962;DHT22;22044;48.298;10.008;2023-12-20T06:12:36;4.10;99.90
35962;DHT22;22044;48.298;10.008;2023-12-20T06:15:23;4.20;99.90
35962;DHT22;22044;48.298;10.008;2023-12-20T06:18:08;4.10;99.90
35962;DHT22;22044;48.298;10.008;2023-12-20T06:20:55;4.10;99.90
35962;DHT22;22044;48.298;10.008;2023-12-20T06:23:40;4.10;99.90
35962;DHT22;22044;48.298;10.008;2023-12-20T06:26:26;4.10;99.90
35962;DHT22;22044;48.298;10.008;2023-12-20T06:29:12;4.20;99.90
35962;DHT22;22044;48.298;10.008;2023-12-20T06:31:59;4.20;99.90
35962;DHT22;22044;48.298;10.008;2023-12-20T06:34:44;4.20;99.90
35962;DHT22;22044;48.298;10.008;2023-12-20T06:37:30;4.10;99.90
35962;DHT22;22044;48.298;10.008;2023-12-20T06:40:15;4.10;99.90
35962;DHT22;22044;48.298;10.008;2023-12-20T06:43:01;4.10;99.90
35962;DHT22;22044;48.298;10.008;2023-12-20T06:45:47;4.10;99.90
35962;DHT22;22044;48.298;10.008;2023-12-20T06:48:33;4.10;99.90
35962;DHT22;22044;48.298;10.008;2023-12-20T06:51:19;4.20;99.90
35962;DHT22;22044;48.298;10.008;2023-12-20T06:54:05;4.10;99.90
35962;DHT22;22044;48.298;10.008;2023-12-20T06:56:51;4.10;99.90
35962;DHT22;22044;48.298;10.008;2023-12-20T06:59:38;4.10;99.90
35962;DHT22;22044;48.298;10.008;2023-12-20T07:02:25;4.10;99.90
35962;DHT22;22044;48.298;10.008;2023-12-20T07:05:16;4.10;99.90
35962;DHT22;22044;48.298;10.008;2023-12-20T07:08:04;4.10;99.90
35962;DHT22;22044;48.298;10.008;2023-12-20T07:10:50;4.10;99.90
35962;DHT22;22044;48.298;10.008;2023-12-20T07:13:36;4.00;99.90
35962;DHT22;22044;48.298;10.008;2023-12-20T07:16:21;4.00;99.90
35962;DHT22;22044;48.298;10.008;2023-12-20T07:19:07;4.00;99.90
35962;DHT22;22044;48.298;10.008;2023-12-20T07:21:54;4.00;99.90
35962;DHT22;22044;48.298;10.008;2023-12-20T07:24:40;4.00;99.90
35962;DHT22;22044;48.298;10.008;2023-12-20T07:27:26;4.00;99.90
35962;DHT22;22044;48.298;10.008;2023-12-20T07:30:12;4.00;99.90
35962;DHT22;22044;48.298;10.008;2023-12-20T07:32:57;4.00;99.90
35962;DHT22;22044;48.298;10.008;2023-12-20T07:35:43;4.00;99.90
35962;DHT22;22044;48.298;10.008;2023-12-20T07:38:30;4.00;99.90
35962;DHT22;22044;48.298;10.008;2023-12-20T07:41:16;4.00;99.90
35962;DHT22;22044;48.298;10.008;2023-12-20T07:44:06;4.00;99.90
35962;DHT22;22044;48.298;10.008;2023-12-20T07:46:52;4.00;99.90
35962;DHT22;22044;48.298;10.008;2023-12-20T07:49:38;4.00;99.90
35962;DHT22;22044;48.298;10.008;2023-12-20T07:52:23;4.00;99.90
35962;DHT22;22044;48.298;10.008;2023-12-20T07:55:11;4.00;99.90
35962;DHT22;22044;48.298;10.008;2023-12-20T07:57:57;4.00;99.90
35962;DHT22;22044;48.298;10.008;2023-12-20T08:00:43;4.00;99.90
35962;DHT22;22044;48.298;10.008;2023-12-20T08:03:28;4.00;99.90
35962;DHT22;22044;48.298;10.008;2023-12-20T08:06:14;4.00;99.90
35962;DHT22;22044;48.298;10.008;2023-12-20T08:09:01;4.00;99.90
35962;DHT22;22044;48.298;10.008;2023-12-20T08:11:48;4.00;99.90
35962;DHT22;22044;48.298;10.008;2023-12-20T08:14:33;4.00;99.90
35962;DHT22;22044;48.298;10.008;2023-12-20T08:17:19;4.10;99.90
35962;DHT22;22044;48.298;10.008;2023-12-20T08:20:06;4.10;99.90
35962;DHT22;22044;48.298;10.008;2023-12-20T08:22:51;4.10;99.90
35962;DHT22;22044;48.298;10.008;2023-12-20T08:25:37;4.10;99.90
35962;DHT22;22044;48.298;10.008;2023-12-20T08:28:24;4.10;99.90
35962;DHT22;22044;48.298;10.008;2023-12-20T08:31:13;4.20;99.90
35962;DHT22;22044;48.298;10.008;2023-12-20T08:33:59;4.20;99.90
35962;DHT22;22044;48.298;10.008;2023-12-20T08:36:44;4.30;99.90
35962;DHT22;22044;48.298;10.008;2023-12-20T08:39:30;4.30;99.90
35962;DHT22;22044;48.298;10.008;2023-12-20T08:42:18;4.30;99.90
35962;DHT22;22044;48.298;10.008;2023-12-20T08:45:06;4.20;99.90
35962;DHT22;22044;48.298;10.008;2023-12-20T08:47:51;4.20;99.90
35962;DHT22;22044;48.298;10.008;2023-12-20T08:50:37;4.30;99.90
35962;DHT22;22044;48.298;10.008;2023-12-20T08:53:23;4.30;99.90
35962;DHT22;22044;48.298;10.008;2023-12-20T08:56:09;4.30;99.90
35962;DHT22;22044;48.298;10.008;2023-12-20T08:58:55;4.40;99.90
35962;DHT22;22044;48.298;10.008;2023-12-20T09:01:42;4.40;99.90
35962;DHT22;22044;48.298;10.008;2023-12-20T09:04:27;4.40;99.90
35962;DHT22;22044;48.298;10.008;2023-12-20T09:07:23;4.40;99.90
35962;DHT22;22044;48.298;10.008;2023-12-20T09:10:09;4.50;99.90
35962;DHT22;22044;48.298;10.008;2023-12-20T09:12:54;4.50;99.90
35962;DHT22;22044;48.298;10.008;2023-12-20T09:15:41;4.50;99.90
35962;DHT22;22044;48.298;10.008;2023-12-20T09:18:28;4.60;99.90
35962;DHT22;22044;48.298;10.008;2023-12-20T09:21:13;4.50;99.90
35962;DHT22;22044;48.298;10.008;2023-12-20T09:23:59;4.60;99.90
35962;DHT22;22044;48.298;10.008;2023-12-20T09:26:44;4.60;99.90
35962;DHT22;22044;48.298;10.008;2023-12-20T09:29:30;4.60;99.90
35962;DHT22;22044;48.298;10.008;2023-12-20T09:32:16;4.60;99.90
35962;DHT22;22044;48.298;10.008;2023-12-20T09:35:03;4.60;99.90
35962;DHT22;22044;48.298;10.008;2023-12-20T09:37:50;4.70;99.90
35962;DHT22;22044;48.298;10.008;2023-12-20T09:40:36;4.80;99.90
35962;DHT22;22044;48.298;10.008;2023-12-20T09:43:24;4.90;99.90
35962;DHT22;22044;48.298;10.008;2023-12-20T09:46:16;5.00;99.90
35962;DHT22;22044;48.298;10.008;2023-12-20T09:49:03;4.90;99.90
35962;DHT22;22044;48.298;10.008;2023-12-20T09:51:51;4.90;99.90
35962;DHT22;22044;48.298;10.008;2023-12-20T09:54:36;4.90;99.90
35962;DHT22;22044;48.298;10.008;2023-12-20T09:57:22;4.90;99.90
35962;DHT22;22044;48.298;10.008;2023-12-20T10:00:09;4.90;99.90
35962;DHT22;22044;48.298;10.008;2023-12-20T10:02:58;4.90;99.90
35962;DHT22;22044;48.298;10.008;2023-12-20T10:05:44;5.00;99.90
35962;DHT22;22044;48.298;10.008;2023-12-20T10:08:31;5.00;99.90
35962;DHT22;22044;48.298;10.008;2023-12-20T10:11:17;5.00;99.90
35962;DHT22;22044;48.298;10.008;2023-12-20T10:14:04;5.10;99.90
35962;DHT22;22044;48.298;10.008;2023-12-20T10:16:49;5.20;99.90
35962;DHT22;22044;48.298;10.008;2023-12-20T10:19:36;5.30;99.90
35962;DHT22;22044;48.298;10.008;2023-12-20T10:22:22;5.30;99.90
35962;DHT22;22044;48.298;10.008;2023-12-20T10:25:09;5.40;99.90
35962;DHT22;22044;48.298;10.008;2023-12-20T10:28:09;5.50;99.90
35962;DHT22;22044;48.298;10.008;2023-12-20T10:30:55;5.50;99.90
35962;DHT22;22044;48.298;10.008;2023-12-20T10:33:41;5.60;99.90
35962;DHT22;22044;48.298;10.008;2023-12-20T10:36:28;5.60;99.90
35962;DHT22;22044;48.298;10.008;2023-12-20T10:39:14;5.60;99.90
35962;DHT22;22044;48.298;10.008;2023-12-20T10:42:02;5.60;99.90
35962;DHT22;22044;48.298;10.008;2023-12-20T10:44:48;5.50;99.90
35962;DHT22;22044;48.298;10.008;2023-12-20T10:47:35;5.40;99.90
35962;DHT22;22044;48.298;10.008;2023-12-20T10:50:21;5.40;99.90
35962;DHT22;22044;48.298;10.008;2023-12-20T10:53:07;5.40;99.90
35962;DHT22;22044;48.298;10.008;2023-12-20T10:55:55;5.40;99.90
35962;DHT22;22044;48.298;10.008;2023-12-20T10:58:42;5.30;99.90
35962;DHT22;22044;48.298;10.008;2023-12-20T11:01:29;5.30;99.90
35962;DHT22;22044;48.298;10.008;2023-12-20T11:04:19;5.30;99.90
35962;DHT22;22044;48.298;10.008;2023-12-20T11:07:13;5.30;99.90
35962;DHT22;22044;48.298;10.008;2023-12-20T11:10:03;5.30;99.90
35962;DHT22;22044;48.298;10.008;2023-12-20T11:13:01;5.40;99.90
35962;DHT22;22044;48.298;10.008;2023-12-20T11:15:54;5.30;99.90
35962;DHT22;22044;48.298;10.008;2023-12-20T11:18:41;5.20;99.90
35962;DHT22;22044;48.298;10.008;2023-12-20T11:21:29;5.10;99.90
35962;DHT22;22044;48.298;10.008;2023-12-20T11:24:16;4.90;99.90
35962;DHT22;22044;48.298;10.008;2023-12-20T11:27:01;4.90;99.90
35962;DHT22;22044;48.298;10.008;2023-12-20T11:29:51;4.80;99.90
35962;DHT22;22044;48.298;10.008;2023-12-20T11:32:40;4.70;99.90
35962;DHT22;22044;48.298;10.008;2023-12-20T11:35:26;4.70;99.90
35962;DHT22;22044;48.298;10.008;2023-12-20T11:38:13;4.70;99.90
35962;DHT22;22044;48.298;10.008;2023-12-20T11:40:59;4.60;99.90
35962;DHT22;22044;48.298;10.008;2023-12-20T11:43:48;4.70;99.90
35962;DHT22;22044;48.298;10.008;2023-12-20T11:46:33;4.70;99.90
35962;DHT22;22044;48.298;10.008;2023-12-20T11:49:25;4.80;99.90
35962;DHT22;22044;48.298;10.008;2023-12-20T11:52:12;4.80;99.90
35962;DHT22;22044;48.298;10.008;2023-12-20T11:54:57;4.80;99.90
35962;DHT22;22044;48.298;10.008;2023-12-20T11:57:43;4.90;99.90
35962;DHT22;22044;48.298;10.008;2023-12-20T12:00:29;4.80;99.90
35962;DHT22;22044;48.298;10.008;2023-12-20T12:03:15;4.90;99.90
35962;DHT22;22044;48.298;10.008;2023-12-20T12:06:02;4.90;99.90
35962;DHT22;22044;48.298;10.008;2023-12-20T12:08:48;5.00;99.90
35962;DHT22;22044;48.298;10.008;2023-12-20T12:11:34;5.00;99.90
35962;DHT22;22044;48.298;10.008;2023-12-20T12:14:20;4.90;99.90
35962;DHT22;22044;48.298;10.008;2023-12-20T12:17:10;4.90;99.90
35962;DHT22;22044;48.298;10.008;2023-12-20T12:20:02;4.90;99.90
35962;DHT22;22044;48.298;10.008;2023-12-20T12:22:58;5.00;99.90
35962;DHT22;22044;48.298;10.008;2023-12-20T12:25:45;5.00;99.90
35962;DHT22;22044;48.298;10.008;2023-12-20T12:28:30;5.00;99.90
35962;DHT22;22044;48.298;10.008;2023-12-20T12:31:16;5.00;99.90
35962;DHT22;22044;48.298;10.008;2023-12-20T12:34:02;5.00;99.90
35962;DHT22;22044;48.298;10.008;2023-12-20T12:36:48;5.00;99.90
35962;DHT22;22044;48.298;10.008;2023-12-20T12:39:35;5.10;99.90
35962;DHT22;22044;48.298;10.008;2023-12-20T12:42:21;5.00;99.90
35962;DHT22;22044;48.298;10.008;2023-12-20T12:45:10;5.00;99.90
35962;DHT22;22044;48.298;10.008;2023-12-20T12:47:56;4.90;99.90
35962;DHT22;22044;48.298;10.008;2023-12-20T12:50:42;4.90;99.90
35962;DHT22;22044;48.298;10.008;2023-12-20T12:53:28;4.80;99.90
35962;DHT22;22044;48.298;10.008;2023-12-20T12:56:15;4.80;99.90
35962;DHT22;22044;48.298;10.008;2023-12-20T12:59:01;4.80;99.90
35962;DHT22;22044;48.298;10.008;2023-12-20T13:01:46;4.80;99.90
35962;DHT22;22044;48.298;10.008;2023-12-20T13:04:32;4.80;99.90
35962;DHT22;22044;48.298;10.008;2023-12-20T13:07:18;4.80;99.90
35962;DHT22;22044;48.298;10.008;2023-12-20T13:10:04;4.80;99.90
35962;DHT22;22044;48.298;10.008;2023-12-20T13:12:51;4.70;99.90
35962;DHT22;22044;48.298;10.008;2023-12-20T13:15:37;4.70;99.90
35962;DHT22;22044;48.298;10.008;2023-12-20T13:18:23;4.60;99.90
35962;DHT22;22044;48.298;10.008;2023-12-20T13:21:08;4.60;99.90
35962;DHT22;22044;48.298;10.008;2023-12-20T13:23:54;4.60;99.90
35962;DHT22;22044;48.298;10.008;2023-12-20T13:26:39;4.60;99.90
35962;DHT22;22044;48.298;10.008;2023-12-20T13:29:26;4.60;99.90
35962;DHT22;22044;48.298;10.008;2023-12-20T13:32:13;4.60;99.90
35962;DHT22;22044;48.298;10.008;2023-12-20T13:34:58;4.60;99.90
35962;DHT22;22044;48.298;10.008;2023-12-20T13:37:45;4.60;99.90
35962;DHT22;22044;48.298;10.008;2023-12-20T13:40:31;4.60;99.90
35962;DHT22;22044;48.298;10.008;2023-12-20T13:43:16;4.50;99.90
35962;DHT22;22044;48.298;10.008;2023-12-20T13:46:06;4.50;99.90
35962;DHT22;22044;48.298;10.008;2023-12-20T13:48:52;4.50;99.90
35962;DHT22;22044;48.298;10.008;2023-12-20T13:51:38;4.50;99.90
35962;DHT22;22044;48.298;10.008;2023-12-20T13:54:24;4.50;99.90
35962;DHT22;22044;48.298;10.008;2023-12-20T13:57:10;4.50;99.90
35962;DHT22;22044;48.298;10.008;2023-12-20T13:59:56;4.40;99.90
35962;DHT22;22044;48.298;10.008;2023-12-20T14:02:43;4.30;99.90
35962;DHT22;22044;48.298;10.008;2023-12-20T14:05:30;4.20;99.90
35962;DHT22;22044;48.298;10.008;2023-12-20T14:08:17;4.20;99.90
35962;DHT22;22044;48.298;10.008;2023-12-20T14:11:03;4.10;99.90
35962;DHT22;22044;48.298;10.008;2023-12-20T14:13:49;4.20;99.90
35962;DHT22;22044;48.298;10.008;2023-12-20T14:16:34;4.10;99.90
35962;DHT22;22044;48.298;10.008;2023-12-20T14:19:21;4.10;99.90
35962;DHT22;22044;48.298;10.008;2023-12-20T14:22:07;4.10;99.90
35962;DHT22;22044;48.298;10.008;2023-12-20T14:24:53;4.00;99.90
35962;DHT22;22044;48.298;10.008;2023-12-20T14:27:39;4.10;99.90
35962;DHT22;22044;48.298;10.008;2023-12-20T14:30:27;4.10;99.90
35962;DHT22;22044;48.298;10.008;2023-12-20T14:33:13;4.10;99.90
35962;DHT22;22044;48.298;10.008;2023-12-20T14:36:00;4.10;99.90
35962;DHT22;22044;48.298;10.008;2023-12-20T14:38:46;4.10;99.90
35962;DHT22;22044;48.298;10.008;2023-12-20T14:41:34;4.10;99.90
35962;DHT22;22044;48.298;10.008;2023-12-20T14:44:20;4.10;99.90
35962;DHT22;22044;48.298;10.008;2023-12-20T14:47:05;4.10;99.90
35962;DHT22;22044;48.298;10.008;2023-12-20T14:49:51;4.10;99.90
35962;DHT22;22044;48.298;10.008;2023-12-20T14:52:39;4.10;99.90
35962;DHT22;22044;48.298;10.008;2023-12-20T14:55:24;4.00;99.90
35962;DHT22;22044;48.298;10.008;2023-12-20T14:58:12;4.00;99.90
35962;DHT22;22044;48.298;10.008;2023-12-20T15:00:59;4.00;99.90
35962;DHT22;22044;48.298;10.008;2023-12-20T15:03:44;4.00;99.90
35962;DHT22;22044;48.298;10.008;2023-12-20T15:06:30;3.90;99.90
35962;DHT22;22044;48.298;10.008;2023-12-20T15:09:17;3.90;99.90
35962;DHT22;22044;48.298;10.008;2023-12-20T15:12:03;3.90;99.90
35962;DHT22;22044;48.298;10.008;2023-12-20T15:14:49;3.80;99.90
35962;DHT22;22044;48.298;10.008;2023-12-20T15:17:34;3.80;99.90
35962;DHT22;22044;48.298;10.008;2023-12-20T15:20:20;3.80;99.90
35962;DHT22;22044;48.298;10.008;2023-12-20T15:23:06;3.80;99.90
35962;DHT22;22044;48.298;10.008;2023-12-20T15:25:53;3.70;99.90
35962;DHT22;22044;48.298;10.008;2023-12-20T15:28:39;3.80;99.90
35962;DHT22;22044;48.298;10.008;2023-12-20T15:31:25;3.70;99.90
35962;DHT22;22044;48.298;10.008;2023-12-20T15:34:11;3.70;99.90
35962;DHT22;22044;48.298;10.008;2023-12-20T15:36:58;3.70;99.90
35962;DHT22;22044;48.298;10.008;2023-12-20T15:39:44;3.70;99.90
35962;DHT22;22044;48.298;10.008;2023-12-20T15:42:31;3.70;99.90
35962;DHT22;22044;48.298;10.008;2023-12-20T15:45:20;3.70;99.90
35962;DHT22;22044;48.298;10.008;2023-12-20T15:48:06;3.60;99.90
35962;DHT22;22044;48.298;10.008;2023-12-20T15:50:53;3.60;99.90
35962;DHT22;22044;48.298;10.008;2023-12-20T15:53:39;3.70;99.90
35962;DHT22;22044;48.298;10.008;2023-12-20T15:56:25;3.70;99.90
35962;DHT22;22044;48.298;10.008;2023-12-20T15:59:12;3.70;99.90
35962;DHT22;22044;48.298;10.008;2023-12-20T16:01:57;3.70;99.90
35962;DHT22;22044;48.298;10.008;2023-12-20T16:04:43;3.70;99.90
35962;DHT22;22044;48.298;10.008;2023-12-20T16:07:28;3.70;99.90
35962;DHT22;22044;48.298;10.008;2023-12-20T16:10:14;3.70;99.90
35962;DHT22;22044;48.298;10.008;2023-12-20T16:13:00;3.70;99.90
35962;DHT22;22044;48.298;10.008;2023-12-20T16:15:46;3.70;99.90
35962;DHT22;22044;48.298;10.008;2023-12-20T16:18:32;3.80;99.90
35962;DHT22;22044;48.298;10.008;2023-12-20T16:21:20;3.80;99.90
35962;DHT22;22044;48.298;10.008;2023-12-20T16:24:02;3.90;99.90
35962;DHT22;22044;48.298;10.008;2023-12-20T16:26:47;3.90;99.90
35962;DHT22;22044;48.298;10.008;2023-12-20T16:29:33;3.90;99.90
35962;DHT22;22044;48.298;10.008;2023-12-20T16:32:20;4.00;99.90
35962;DHT22;22044;48.298;10.008;2023-12-20T16:35:05;4.00;99.90
35962;DHT22;22044;48.298;10.008;2023-12-20T16:37:51;4.10;99.90
35962;DHT22;22044;48.298;10.008;2023-12-20T16:40:37;4.00;99.90
35962;DHT22;22044;48.298;10.008;2023-12-20T16:43:22;3.90;99.90
35962;DHT22;22044;48.298;10.008;2023-12-20T16:46:08;3.90;99.90
35962;DHT22;22044;48.298;10.008;2023-12-20T16:48:55;3.90;99.90
35962;DHT22;22044;48.298;10.008;2023-12-20T16:51:40;3.70;99.90
35962;DHT22;22044;48.298;10.008;2023-12-20T16:54:26;3.70;99.90
35962;DHT22;22044;48.298;10.008;2023-12-20T16:57:13;3.70;99.90
35962;DHT22;22044;48.298;10.008;2023-12-20T16:59:59;3.70;99.90
35962;DHT22;22044;48.298;10.008;2023-12-20T17:03:10;3.80;99.90
35962;DHT22;22044;48.298;10.008;2023-12-20T17:05:57;3.70;99.90
35962;DHT22;22044;48.298;10.008;2023-12-20T17:08:43;3.80;99.90
35962;DHT22;22044;48.298;10.008;2023-12-20T17:11:28;3.80;99.90
35962;DHT22;22044;48.298;10.008;2023-12-20T17:14:14;3.70;99.90
35962;DHT22;22044;48.298;10.008;2023-12-20T17:17:00;3.70;99.90
35962;DHT22;22044;48.298;10.008;2023-12-20T17:19:47;3.60;99.90
35962;DHT22;22044;48.298;10.008;2023-12-20T17:22:34;3.50;99.90
35962;DHT22;22044;48.298;10.008;2023-12-20T17:25:19;3.50;99.90
35962;DHT22;22044;48.298;10.008;2023-12-20T17:28:06;3.50;99.90
35962;DHT22;22044;48.298;10.008;2023-12-20T17:30:52;3.40;99.90